createdAt,value
2019-04-03T00:01:15.201Z,47.24
2019-04-03T00:04:19.348Z,47.13
2019-04-03T00:07:23.528Z,47.25
2019-04-03T00:10:27.714Z,47.34
2019-04-03T00:13:32.196Z,46.37
2019-04-03T00:16:36.085Z,46.90
2019-04-03T00:19:40.221Z,46.97
2019-04-03T00:22:46.103Z,46.85
2019-04-03T00:25:52.321Z,47.07
2019-04-03T00:28:56.264Z,47.27
2019-04-03T00:32:00.375Z,47.60
2019-04-03T00:35:04.880Z,47.48
2019-04-03T00:38:09.098Z,47.62
2019-04-03T00:41:13.196Z,48.13
2019-04-03T00:44:17.077Z,48.36
2019-04-03T00:47:20.865Z,48.50
2019-04-03T00:50:26.158Z,48.64
2019-04-03T00:53:30.651Z,48.53
2019-04-03T00:56:34.828Z,49.32
2019-04-03T00:59:38.737Z,49.32
2019-04-03T01:02:42.909Z,51.08
2019-04-03T01:05:46.790Z,51.78
2019-04-03T01:08:50.704Z,53.77
2019-04-03T01:11:54.512Z,54.31
2019-04-03T01:14:58.322Z,56.65
2019-04-03T01:18:05.122Z,57.29
2019-04-03T01:21:09.236Z,56.35
2019-04-03T01:24:13.034Z,57.29
2019-04-03T01:27:17.137Z,58.75
2019-04-03T01:30:20.969Z,58.10
2019-04-03T01:33:24.940Z,59.49
2019-04-03T01:36:28.790Z,58.54
2019-04-03T01:39:32.616Z,59.44
2019-04-03T01:42:37.202Z,59.35
2019-04-03T01:45:41.138Z,60.01
2019-04-03T01:48:44.948Z,59.79
2019-04-03T01:51:49.041Z,60.12
2019-04-03T01:54:52.867Z,60.98
2019-04-03T01:57:57.214Z,61.76
2019-04-03T02:01:01.596Z,61.37
2019-04-03T02:04:05.499Z,61.50
2019-04-03T02:07:09.323Z,62.08
2019-04-03T02:10:18.286Z,63.20
2019-04-03T02:13:22.521Z,63.28
2019-04-03T02:16:26.988Z,63.70
2019-04-03T02:19:30.836Z,63.42
2019-04-03T02:22:34.894Z,64.64
2019-04-03T02:25:39.164Z,64.82
2019-04-03T02:28:43.247Z,64.77
2019-04-03T02:31:47.075Z,65.37
2019-04-03T02:34:50.889Z,65.45
2019-04-03T02:37:55.062Z,65.35
2019-04-03T02:40:59.461Z,65.44
2019-04-03T02:44:04.234Z,65.45
2019-04-03T02:47:08.715Z,65.76
2019-04-03T02:50:15.111Z,65.66
2019-04-03T02:53:21.005Z,66.03
2019-04-03T02:56:24.928Z,66.30
2019-04-03T02:59:32.032Z,67.38
2019-04-03T03:02:35.836Z,67.65
2019-04-03T03:05:40.005Z,67.46
2019-04-03T03:08:44.482Z,67.76
2019-04-03T03:11:48.949Z,67.81
2019-04-03T03:14:53.261Z,67.94
2019-04-03T03:17:57.780Z,67.80
2019-04-03T03:21:04.178Z,67.37
2019-04-03T03:24:08.895Z,67.40
2019-04-03T03:27:13.279Z,67.76
2019-04-03T03:30:36.121Z,68.12
2019-04-03T03:33:34.663Z,68.20
2019-04-03T03:36:30.559Z,68.66
2019-04-03T03:39:35.294Z,69.77
2019-04-03T03:42:39.677Z,69.39
2019-04-03T03:45:44.753Z,70.02
2019-04-03T03:48:49.375Z,71.35
2019-04-03T03:51:53.827Z,70.76
2019-04-03T03:54:58.092Z,71.15
2019-04-03T03:58:03.211Z,74.72
2019-04-03T04:01:07.780Z,74.91
2019-04-03T04:04:14.101Z,76.32
2019-04-03T04:07:18.107Z,75.75
2019-04-03T04:10:25.283Z,76.84
2019-04-03T04:13:29.079Z,77.71
2019-04-03T04:16:35.610Z,76.95
2019-04-03T04:19:39.221Z,77.23
2019-04-03T04:22:48.639Z,79.04
2019-04-03T04:25:51.765Z,77.36
2019-04-03T04:28:55.888Z,77.46
2019-04-03T04:32:00.135Z,79.03
2019-04-03T04:35:04.430Z,80.82
2019-04-03T04:38:08.296Z,79.62
2019-04-03T04:41:12.076Z,81.79
2019-04-03T04:44:16.297Z,81.91
2019-04-03T04:47:20.183Z,82.47
2019-04-03T04:50:25.749Z,81.79
2019-04-03T04:53:30.238Z,80.15
2019-04-03T04:56:35.798Z,80.61
2019-04-03T04:59:41.393Z,78.56
2019-04-03T05:02:45.833Z,80.08
2019-04-03T05:05:50.414Z,78.63
2019-04-03T05:08:54.673Z,81.05
2019-04-03T05:11:58.712Z,82.31
2019-04-03T05:15:03.279Z,81.47
2019-04-03T05:18:07.323Z,79.17
2019-04-03T05:21:11.522Z,79.29
2019-04-03T05:24:15.469Z,82.65
2019-04-03T05:27:19.966Z,82.04
2019-04-03T05:30:36.811Z,83.51
2019-04-03T05:33:42.254Z,82.51
2019-04-03T05:36:46.830Z,83.68
2019-04-03T05:39:54.672Z,84.04
2019-04-03T05:42:59.863Z,83.93
2019-04-03T05:46:05.528Z,83.44
2019-04-03T05:49:10.959Z,84.15
2019-04-03T05:52:15.228Z,83.12
2019-04-03T05:55:18.947Z,84.82
2019-04-03T05:58:22.757Z,84.08
2019-04-03T06:01:26.866Z,82.25
2019-04-03T06:04:30.965Z,81.07
2019-04-03T06:07:35.602Z,82.22
2019-04-03T06:10:39.658Z,81.87
2019-04-03T06:13:44.382Z,82.35
2019-04-03T06:16:48.272Z,81.95
2019-04-03T06:19:52.395Z,82.92
2019-04-03T06:22:56.944Z,83.79
2019-04-03T06:26:02.169Z,81.91
2019-04-03T06:29:08.086Z,83.57
2019-04-03T06:32:12.135Z,82.36
2019-04-03T06:35:16.401Z,82.68
2019-04-03T06:38:22.490Z,82.15
2019-04-03T06:41:26.705Z,82.95
2019-04-03T06:44:30.533Z,84.89
2019-04-03T06:47:34.646Z,83.40
2019-04-03T06:50:39.136Z,84.31
2019-04-03T06:53:43.497Z,84.58
2019-04-03T06:56:47.908Z,84.23
2019-04-03T06:59:52.529Z,84.34
2019-04-03T07:02:56.619Z,84.96
2019-04-03T07:06:01.236Z,86.39
2019-04-03T07:09:07.492Z,87.31
2019-04-03T07:12:11.631Z,86.40
2019-04-03T07:15:16.633Z,86.64
2019-04-03T07:18:20.730Z,89.50
2019-04-03T07:21:27.451Z,90.27
2019-04-03T07:24:31.872Z,90.03
2019-04-03T07:27:37.165Z,89.33
2019-04-03T07:30:42.738Z,87.28
2019-04-03T07:33:46.685Z,87.49
2019-04-03T07:36:51.021Z,87.56
2019-04-03T07:39:54.900Z,87.25
2019-04-03T07:42:58.980Z,89.39
2019-04-03T07:46:04.017Z,89.92
2019-04-03T07:49:09.456Z,90.16
2019-04-03T07:52:16.410Z,90.56
2019-04-03T07:55:19.853Z,91.04
2019-04-03T07:58:25.653Z,91.75
2019-04-03T08:01:30.106Z,91.48
2019-04-03T08:04:34.330Z,92.56
2019-04-03T08:07:38.618Z,92.82
2019-04-03T08:10:42.504Z,93.09
2019-04-03T08:13:46.548Z,93.02
2019-04-03T08:16:50.760Z,94.76
2019-04-03T08:19:55.256Z,91.52
2019-04-03T08:22:59.801Z,90.70
2019-04-03T08:26:03.706Z,91.56
2019-04-03T08:29:07.639Z,92.69
2019-04-03T08:32:11.627Z,92.97
2019-04-03T08:35:22.615Z,92.44
2019-04-03T08:38:22.256Z,94.96
2019-04-03T08:41:26.906Z,93.83
2019-04-03T08:44:31.561Z,92.21
2019-04-03T08:47:37.082Z,92.29
2019-04-03T08:50:41.203Z,93.22
2019-04-03T08:53:45.063Z,93.78
2019-04-03T08:56:49.447Z,94.75
2019-04-03T08:59:53.835Z,94.32
2019-04-03T09:02:58.136Z,94.33
2019-04-03T09:06:02.060Z,95.71
2019-04-03T09:09:08.949Z,94.06
2019-04-03T09:12:12.890Z,91.48
2019-04-03T09:15:17.048Z,91.58
2019-04-03T09:18:21.236Z,89.53
2019-04-03T09:21:25.147Z,90.42
2019-04-03T09:24:30.119Z,88.74
2019-04-03T09:27:34.762Z,88.40
2019-04-03T09:30:38.712Z,88.58
2019-04-03T09:33:43.132Z,89.15
2019-04-03T09:36:47.746Z,87.95
2019-04-03T09:39:51.650Z,89.35
2019-04-03T09:42:56.854Z,88.02
2019-04-03T09:46:01.060Z,88.53
2019-04-03T09:49:05.713Z,88.32
2019-04-03T09:52:10.877Z,88.33
2019-04-03T09:55:15.420Z,87.75
2019-04-03T09:58:19.466Z,91.17
2019-04-03T10:01:23.330Z,91.81
2019-04-03T10:04:27.576Z,89.08
2019-04-03T10:07:32.041Z,88.16
2019-04-03T10:10:38.468Z,87.93
2019-04-03T10:13:42.903Z,83.97
2019-04-03T10:16:46.736Z,85.05
2019-04-03T10:19:51.625Z,85.83
2019-04-03T10:22:56.351Z,85.46
2019-04-03T10:26:00.727Z,85.58
2019-04-03T10:29:04.873Z,84.74
2019-04-03T10:32:09.102Z,85.71
2019-04-03T10:35:13.595Z,86.85
2019-04-03T10:38:18.318Z,84.91
2019-04-03T10:41:22.722Z,84.86
2019-04-03T10:44:26.869Z,87.33
2019-04-03T10:47:41.106Z,87.42
2019-04-03T10:50:38.033Z,87.93
2019-04-03T10:53:42.375Z,89.84
2019-04-03T10:56:46.870Z,89.10
2019-04-03T10:59:54.428Z,86.86
2019-04-03T11:02:56.449Z,87.78
2019-04-03T11:06:00.905Z,87.43
2019-04-03T11:09:08.016Z,86.09
2019-04-03T11:12:12.636Z,86.58
2019-04-03T11:15:16.991Z,83.54
2019-04-03T11:18:21.765Z,84.35
2019-04-03T11:21:25.666Z,81.66
2019-04-03T11:24:29.752Z,83.20
2019-04-03T11:27:41.882Z,81.69
2019-04-03T11:30:39.188Z,82.43
2019-04-03T11:33:45.885Z,81.79
2019-04-03T11:36:49.301Z,81.70
2019-04-03T11:40:02.776Z,81.27
2019-04-03T11:42:58.827Z,82.35
2019-04-03T11:46:02.780Z,81.18
2019-04-03T11:49:06.626Z,81.44
2019-04-03T11:52:10.498Z,80.31
2019-04-03T11:55:14.992Z,79.98
2019-04-03T11:58:20.741Z,82.72
2019-04-03T12:01:25.267Z,82.33
2019-04-03T12:04:29.306Z,82.16
2019-04-03T12:07:33.133Z,82.64
2019-04-03T12:10:37.498Z,83.17
2019-04-03T12:13:42.955Z,83.02
2019-04-03T12:16:47.072Z,81.30
2019-04-03T12:19:51.212Z,82.94
2019-04-03T12:22:55.731Z,81.90
2019-04-03T12:25:59.605Z,81.87
2019-04-03T12:29:03.986Z,81.42
2019-04-03T12:32:10.304Z,80.53
2019-04-03T12:35:14.375Z,80.47
2019-04-03T12:38:18.300Z,80.58
2019-04-03T12:41:22.530Z,78.68
2019-04-03T12:44:26.596Z,77.23
2019-04-03T12:47:30.453Z,79.29
2019-04-03T12:50:34.563Z,77.91
2019-04-03T12:53:38.390Z,78.12
2019-04-03T12:56:42.471Z,79.67
2019-04-03T12:59:47.637Z,79.48
2019-04-03T13:02:52.898Z,77.32
2019-04-03T13:05:57.034Z,77.08
2019-04-03T13:09:00.809Z,77.91
2019-04-03T13:12:05.017Z,78.46
2019-04-03T13:15:09.603Z,77.35
2019-04-03T13:18:13.486Z,78.05
2019-04-03T13:21:17.538Z,77.58
2019-04-03T13:24:21.825Z,76.93
2019-04-03T13:27:25.703Z,76.53
2019-04-03T13:30:29.401Z,75.48
2019-04-03T13:33:33.574Z,76.68
2019-04-03T13:36:37.763Z,76.08
2019-04-03T13:39:41.825Z,75.33
2019-04-03T13:42:47.629Z,76.54
2019-04-03T13:45:51.390Z,76.10
2019-04-03T13:48:55.453Z,75.98
2019-04-03T13:52:03.944Z,77.12
2019-04-03T13:55:05.349Z,78.04
2019-04-03T13:58:09.133Z,78.72
2019-04-03T14:01:12.876Z,78.48
2019-04-03T14:04:17.096Z,79.76
2019-04-03T14:07:20.979Z,78.31
2019-04-03T14:10:26.950Z,79.24
2019-04-03T14:13:30.315Z,78.78
2019-04-03T14:16:35.521Z,78.76
2019-04-03T14:19:44.326Z,78.44
2019-04-03T14:22:45.332Z,78.71
2019-04-03T14:25:49.416Z,78.56
2019-04-03T14:28:53.181Z,79.18
2019-04-03T14:31:56.954Z,79.99
2019-04-03T14:35:10.298Z,80.71
2019-04-03T14:38:06.734Z,80.86
2019-04-03T14:41:10.742Z,81.04
2019-04-03T14:44:14.844Z,80.28
2019-04-03T14:47:21.766Z,80.68
2019-04-03T14:50:25.129Z,80.69
2019-04-03T14:53:29.041Z,80.86
2019-04-03T14:56:34.003Z,79.89
2019-04-03T14:59:38.502Z,76.54
2019-04-03T15:02:42.575Z,73.97
2019-04-03T15:05:48.088Z,74.50
2019-04-03T15:08:54.731Z,74.11
2019-04-03T15:11:58.144Z,74.94
2019-04-03T15:15:02.445Z,73.60
2019-04-03T15:18:09.194Z,73.66
2019-04-03T15:21:12.295Z,75.19
2019-04-03T15:24:16.441Z,76.28
2019-04-03T15:27:21.449Z,76.71
2019-04-03T15:30:28.053Z,80.00
2019-04-03T15:33:32.059Z,82.43
2019-04-03T15:36:36.705Z,83.53
2019-04-03T15:39:41.015Z,85.95
2019-04-03T15:42:45.912Z,87.86
2019-04-03T15:45:50.327Z,92.13
2019-04-03T15:48:55.263Z,92.78
2019-04-03T15:51:59.462Z,93.35
2019-04-03T15:55:04.059Z,95.16
2019-04-03T15:58:09.421Z,89.07
2019-04-03T16:01:13.783Z,90.89
2019-04-03T16:04:18.392Z,92.95
2019-04-03T16:07:22.727Z,93.92
2019-04-03T16:10:27.125Z,94.82
2019-04-03T16:13:30.880Z,94.17
2019-04-03T16:16:34.787Z,94.58
2019-04-03T16:19:38.623Z,94.94
2019-04-03T16:22:43.444Z,95.28
2019-04-03T16:25:49.293Z,92.31
2019-04-03T16:28:53.349Z,91.02
2019-04-03T16:31:58.849Z,92.29
2019-04-03T16:35:02.911Z,90.21
2019-04-03T16:38:07.148Z,91.95
2019-04-03T16:41:11.767Z,95.32
2019-04-03T16:44:16.009Z,95.12
2019-04-03T16:47:19.895Z,94.46
2019-04-03T16:50:26.089Z,95.33
2019-04-03T16:53:29.839Z,95.07
2019-04-03T16:56:34.023Z,93.92
2019-04-03T16:59:38.206Z,95.43
2019-04-03T17:02:42.554Z,94.58
2019-04-03T17:05:46.497Z,94.92
2019-04-03T17:08:50.660Z,94.60
2019-04-03T17:11:54.887Z,96.46
2019-04-03T17:14:58.802Z,94.17
2019-04-03T17:18:03.138Z,95.95
2019-04-03T17:21:07.510Z,96.28
2019-04-03T17:24:11.845Z,98.01
2019-04-03T17:27:16.618Z,96.84
2019-04-03T17:30:21.227Z,94.71
2019-04-03T17:33:25.932Z,94.72
2019-04-03T17:36:30.426Z,95.33
2019-04-03T17:39:35.723Z,94.14
2019-04-03T17:42:40.417Z,94.62
2019-04-03T17:45:46.122Z,96.67
2019-04-03T17:48:49.951Z,96.36
2019-04-03T17:51:54.242Z,95.37
2019-04-03T17:54:58.437Z,95.38
2019-04-03T17:58:02.196Z,95.17
2019-04-03T18:01:06.033Z,94.95
2019-04-03T18:04:10.082Z,95.74
2019-04-03T18:07:13.913Z,94.71
2019-04-03T18:10:17.855Z,93.46
2019-04-03T18:13:24.620Z,93.58
2019-04-03T18:16:29.795Z,91.88
2019-04-03T18:19:37.704Z,90.66
2019-04-03T18:22:39.554Z,92.76
2019-04-03T18:25:45.085Z,95.34
2019-04-03T18:28:49.198Z,93.79
2019-04-03T18:31:52.981Z,94.15
2019-04-03T18:34:57.015Z,95.16
2019-04-03T18:38:01.179Z,95.45
2019-04-03T18:41:05.751Z,97.00
2019-04-03T18:44:21.498Z,97.72
2019-04-03T18:47:15.780Z,96.77
2019-04-03T18:50:19.792Z,96.47
2019-04-03T18:53:23.732Z,96.84
2019-04-03T18:56:27.587Z,94.36
2019-04-03T18:59:32.221Z,96.62
2019-04-03T19:02:36.150Z,97.37
2019-04-03T19:05:42.535Z,97.12
2019-04-03T19:08:45.843Z,97.19
2019-04-03T19:11:51.464Z,97.32
2019-04-03T19:14:55.473Z,96.42
2019-04-03T19:18:00.656Z,97.10
2019-04-03T19:21:05.147Z,95.08
2019-04-03T19:24:09.043Z,96.62
2019-04-03T19:27:12.877Z,96.85
2019-04-03T19:30:16.819Z,95.26
2019-04-03T19:33:20.727Z,97.50
2019-04-03T19:36:24.560Z,96.33
2019-04-03T19:39:28.718Z,95.66
2019-04-03T19:42:32.904Z,94.77
2019-04-03T19:45:36.731Z,95.54
2019-04-03T19:48:40.494Z,96.33
2019-04-03T19:51:44.318Z,98.76
2019-04-03T19:54:49.647Z,98.32
2019-04-03T19:57:57.475Z,97.02
2019-04-03T20:01:03.321Z,98.23
2019-04-03T20:04:06.061Z,99.37
2019-04-03T20:07:10.363Z,97.78
2019-04-03T20:10:14.624Z,97.50
2019-04-03T20:13:18.450Z,97.01
2019-04-03T20:16:24.290Z,97.79
2019-04-03T20:19:27.961Z,97.07
2019-04-03T20:22:31.830Z,97.62
2019-04-03T20:25:35.747Z,97.45
2019-04-03T20:28:40.066Z,99.32
2019-04-03T20:31:44.249Z,98.33
2019-04-03T20:34:48.536Z,98.06
2019-04-03T20:37:52.352Z,98.33
2019-04-03T20:40:56.187Z,96.81
2019-04-03T20:43:59.995Z,94.70
2019-04-03T20:47:04.722Z,96.86
2019-04-03T20:50:09.043Z,96.35
2019-04-03T20:53:16.909Z,96.54
2019-04-03T20:56:18.919Z,96.53
2019-04-03T20:59:22.782Z,96.06
2019-04-03T21:02:27.001Z,95.50
2019-04-03T21:05:31.792Z,95.70
2019-04-03T21:08:35.709Z,95.84
2019-04-03T21:11:40.211Z,95.87
2019-04-03T21:14:47.384Z,95.62
2019-04-03T21:17:50.602Z,96.14
2019-04-03T21:20:54.823Z,94.82
2019-04-03T21:23:59.245Z,94.71
2019-04-03T21:27:03.171Z,95.28
2019-04-03T21:30:07.964Z,94.89
2019-04-03T21:33:12.251Z,95.44
2019-04-03T21:36:16.193Z,94.09
2019-04-03T21:39:20.471Z,94.08
2019-04-03T21:42:25.016Z,94.87
2019-04-03T21:45:30.563Z,94.85
2019-04-03T21:48:34.755Z,94.56
2019-04-03T21:51:38.666Z,94.07
2019-04-03T21:54:42.565Z,96.27
2019-04-03T21:57:46.791Z,95.47
2019-04-03T22:01:20.521Z,93.92
2019-04-03T22:04:24.713Z,94.84
2019-04-03T22:07:29.021Z,94.15
2019-04-03T22:10:33.550Z,94.46
2019-04-03T22:13:38.424Z,93.74
2019-04-03T22:16:42.997Z,95.10
2019-04-03T22:19:46.851Z,95.36
2019-04-03T22:22:50.820Z,95.30
2019-04-03T22:25:55.011Z,93.89
2019-04-03T22:28:58.778Z,94.41
2019-04-03T22:32:02.664Z,94.29
2019-04-03T22:35:07.216Z,94.46
2019-04-03T22:38:11.035Z,94.54
2019-04-03T22:41:15.197Z,95.30
2019-04-03T22:44:18.952Z,95.33
2019-04-03T22:47:25.149Z,94.43
2019-04-03T22:50:28.894Z,94.03
2019-04-03T22:53:32.876Z,94.26
2019-04-03T22:56:36.949Z,94.74
2019-04-03T22:59:41.082Z,95.48
2019-04-03T23:02:44.892Z,95.74
2019-04-03T23:05:49.073Z,95.56
2019-04-03T23:08:53.808Z,95.04
2019-04-03T23:11:58.623Z,96.63
2019-04-03T23:15:03.242Z,96.31
2019-04-03T23:18:07.601Z,95.11
2019-04-03T23:21:11.436Z,95.31
2019-04-03T23:24:15.233Z,97.46
2019-04-03T23:27:19.045Z,97.90
2019-04-03T23:30:22.866Z,94.95
2019-04-03T23:33:27.050Z,95.76
2019-04-03T23:36:30.909Z,95.39
2019-04-03T23:39:34.752Z,94.37
2019-04-03T23:42:38.959Z,95.72
2019-04-03T23:45:43.784Z,95.62
2019-04-03T23:48:48.963Z,95.67
2019-04-03T23:51:53.797Z,95.31
2019-04-03T23:54:57.634Z,95.43
2019-04-03T23:58:01.420Z,94.84
